Portada
METAR-TAF:

METAR-TAF

Aeroports :

Tongatapu, Tonga

latitud: 21-14S, longitud: 175-09W, altitud: 38 m

Observació

L'informe es va fer fa 33 minuts, a les 00:00 UTC
Vent 10 kt del Sud
Temperatura 26°C
Humitat 89%
Pressió 1014 hPa
Visibilitat 10 km o més
Escasses núvols a una alçada de 1000 ft
Escasses núvols a una alçada de 1700 ft, Cumulus congestus.

METAR: NFTF 010000Z 19010KT 9999 FEW010 FEW017TCU 26/24 Q1014

Hora: 13:33 (00:33 UTC)

Pronòstic

L'informe es va fer fa 1 hora i 13 minuts, a les 23:20 UTC
Pronòstic vàlid del 01 a les 00 UTC al 01 a les 24 UTC
Vent 10 kt del Sud/Sud-Oest
Visibilitat 10 km o més
Escasses núvols a una alçada de 700 ft
Cel ennuvolat a una alçada de 1600 ft
Probabilitat 30% :
Temporalment
l' 01 a les 00 UTC al 01 a les 12 UTC
Visibilitat: 5000 m
Cel ennuvolat a una alçada de 1500 ft
xàfecs de pluja

TAF: NFTF 302320Z 0100/0124 20010KT 9999 FEW007 BKN016 PROB30 TEMPO 0100/0112 SHRA 5000 BKN015

Observacions i pronòstics meteorològics de més de 4000 aeroports (METAR i TAF).

Les estacions disponibles són els punts grocs i vermells al mapa.

Posi el ratolí al punt desitjat per veure el nom de l'estació.

Feu clic per veure les observacions i els pronòstics meteorològics.

Per canviar el mapa: feu clic els botons verds amb una creu de color negre per apropar; al botó verd amb un guió per allunyar la imatge; o en les fletxes verdes per a mapes adjacents.


METAR-TAF: